RKTU/CHN METAR and TAF weather

Enter ICAO airport designator
Station Type Date Time Source
RKTU METAR 2019/12/16 06:00 UTC NOAA

RKTU 160600Z 27003KT 9999 FEW040 14/04 Q1022


Station Type Date Time Source
RKTU Decoded METAR 2019/12/16 06:00 UTC NOAA

Chongju Ab, Korea, South (RKTU) 36-42N 127-30E 66M
Dec 16, 2019 - 01:00 AM EST / 2019.12.16 0600 UTC
Wind: from the W (270 degrees) at 3 MPH (3 KT):0
Visibility: greater than 7 mile(s):0
Sky conditions: mostly clear
Temperature: 57 F (14 C)
Dew Point: 39 F (4 C)
Relative Humidity: 50%
Pressure (altimeter): 30.18 in. Hg (1022 hPa)
ob: RKTU 160600Z 27003KT 9999 FEW040 14/04 Q1022
cycle: 6

Station Type Date Time Source
RKTU TAF 2019/12/16 06:09 UTC NOAA

TAF TAF RKTU 160500Z 1606/1712 15006KT 9999 SCT030 SCT120 TX13/1606Z TN05/1621Z
BECMG 1609/1610 SCT030 BKN100
BECMG 1617/1618 27006KT 4800 -RA BR SCT015 OVC030
BECMG 1619/1620 3200 BKN015 OVC030
BECMG 1706/1707 4800 BR SCT015 BKN030

Example: see airport list